Time;durP1;ratioP1;P1;durP2;ratioP2;P2;SDS_P1;SDS_P2;PMS_P1;PMS_P2;Temp;Humidity;BMP_temperature;BMP_pressure;BME280_temperature;BME280_humidity;BME280_pressure;Samples;Min_cycle;Max_cycle;Signal;HPM_P1;HPM_P2
2023/06/29 00:00:13;;;;;;;2.27;2.07;;;24.10;44.60;;;;;;5016117;28;20504;-73
2023/06/29 00:02:39;;;;;;;2.20;2.10;;;24.10;44.50;;;;;;5005002;28;20993;-73
2023/06/29 00:05:05;;;;;;;2.33;2.23;;;24.10;44.60;;;;;;5021335;28;20460;-73
2023/06/29 00:07:33;;;;;;;2.10;2.00;;;24.10;44.60;;;;;;5022425;28;20982;-73
2023/06/29 00:09:58;;;;;;;2.30;2.20;;;24.10;44.60;;;;;;5016910;28;20538;-73
2023/06/29 00:12:24;;;;;;;2.33;2.13;;;24.10;44.70;;;;;;5020707;28;20465;-73
2023/06/29 00:14:49;;;;;;;2.07;1.90;;;24.20;44.70;;;;;;5011012;28;20215;-73
2023/06/29 00:17:16;;;;;;;2.37;2.27;;;24.10;44.60;;;;;;5012086;28;20232;-73
2023/06/29 00:19:42;;;;;;;2.20;2.10;;;24.10;44.60;;;;;;5019354;28;20226;-73
2023/06/29 00:22:09;;;;;;;2.07;1.97;;;24.10;44.60;;;;;;5017486;28;23037;-74
2023/06/29 00:24:42;;;;;;;2.17;2.07;;;24.10;44.60;;;;;;4994883;28;20793;-73
2023/06/29 00:27:11;;;;;;;2.50;2.40;;;24.10;44.60;;;;;;5002881;28;20479;-73
2023/06/29 00:29:37;;;;;;;2.60;2.40;;;24.10;44.70;;;;;;5007952;28;20471;-73
2023/06/29 00:32:02;;;;;;;3.80;2.33;;;24.20;44.70;;;;;;5022182;28;20494;-73
2023/06/29 00:34:28;;;;;;;2.47;2.37;;;24.20;44.70;;;;;;5011620;28;20359;-73
2023/06/29 00:36:54;;;;;;;2.30;2.10;;;24.10;44.70;;;;;;5017273;28;20246;-72
2023/06/29 00:39:19;;;;;;;2.90;2.20;;;24.20;44.70;;;;;;5020418;28;20219;-73
2023/06/29 00:41:54;;;;;;;2.30;2.20;;;24.10;44.70;;;;;;5020680;28;20226;-73
2023/06/29 00:44:21;;;;;;;2.33;2.17;;;24.10;44.70;;;;;;5009509;28;20317;-73
2023/06/29 00:46:47;;;;;;;1.93;1.83;;;24.10;44.60;;;;;;5019139;28;20468;-73
2023/06/29 00:49:13;;;;;;;2.40;2.23;;;24.10;44.70;;;;;;5015648;28;20467;-73
2023/06/29 00:51:39;;;;;;;2.43;2.30;;;24.10;44.70;;;;;;5003352;28;20444;-73
2023/06/29 00:54:06;;;;;;;2.60;2.40;;;24.20;44.70;;;;;;5017137;28;20474;-73
2023/06/29 00:56:33;;;;;;;2.13;2.03;;;24.10;44.70;;;;;;5016107;28;20464;-74
2023/06/29 00:58:58;;;;;;;1.97;1.87;;;24.10;44.70;;;;;;5021977;28;21105;-72
2023/06/29 01:01:23;;;;;;;2.20;2.10;;;24.10;44.70;;;;;;5008755;28;21072;-73
2023/06/29 01:03:49;;;;;;;2.40;2.30;;;24.20;44.70;;;;;;5013842;28;20318;-73
2023/06/29 01:06:19;;;;;;;2.53;2.40;;;24.10;44.70;;;;;;5019822;28;20238;-72
2023/06/29 01:08:50;;;;;;;2.60;2.40;;;24.10;44.70;;;;;;5010540;28;20222;-73
2023/06/29 01:11:16;;;;;;;2.80;2.13;;;24.10;44.70;;;;;;5019155;28;20539;-73
2023/06/29 01:13:43;;;;;;;2.30;2.20;;;24.10;44.80;;;;;;5018904;28;20456;-73
2023/06/29 01:16:13;;;;;;;2.37;2.27;;;24.10;44.80;;;;;;5014344;28;21637;-73
2023/06/29 01:18:41;;;;;;;2.23;2.13;;;24.10;44.70;;;;;;4999650;28;21281;-73
2023/06/29 01:21:07;;;;;;;2.47;2.37;;;24.10;44.70;;;;;;5002478;28;21435;-73
2023/06/29 01:23:36;;;;;;;2.10;2.00;;;24.10;44.70;;;;;;4999816;28;20476;-73
2023/06/29 01:26:03;;;;;;;2.20;2.10;;;24.20;44.80;;;;;;5011801;28;20503;-73
2023/06/29 01:28:33;;;;;;;2.30;2.20;;;24.10;44.80;;;;;;5013894;28;20462;-73
2023/06/29 01:31:02;;;;;;;2.43;2.33;;;24.10;44.80;;;;;;5016889;28;21246;-73
2023/06/29 01:33:27;;;;;;;2.30;2.20;;;24.10;44.70;;;;;;5012387;28;21060;-73
2023/06/29 01:36:01;;;;;;;3.00;2.80;;;24.10;44.80;;;;;;5010618;28;20455;-73
2023/06/29 01:38:32;;;;;;;3.40;3.20;;;24.10;44.80;;;;;;5010362;28;20596;-73
2023/06/29 01:40:59;;;;;;;2.40;2.17;;;24.10;44.80;;;;;;5021088;28;20456;-73
2023/06/29 01:43:28;;;;;;;2.53;2.40;;;24.10;44.80;;;;;;5022121;28;20464;-73
2023/06/29 01:45:53;;;;;;;2.50;2.30;;;24.10;44.80;;;;;;5009161;28;20956;-73
2023/06/29 01:48:19;;;;;;;2.30;2.20;;;24.10;44.80;;;;;;5018340;28;20535;-73
2023/06/29 01:50:45;;;;;;;2.47;2.27;;;24.10;44.80;;;;;;5014926;28;20675;-73
2023/06/29 01:53:11;;;;;;;2.50;2.40;;;24.10;44.80;;;;;;5004252;28;20653;-73
2023/06/29 01:55:36;;;;;;;2.83;2.63;;;24.10;44.90;;;;;;4997578;28;20218;-73
2023/06/29 01:58:02;;;;;;;2.80;2.60;;;24.10;44.80;;;;;;5014188;28;20410;-73
2023/06/29 02:00:28;;;;;;;2.20;2.10;;;24.10;44.80;;;;;;5002358;28;20222;-73
2023/06/29 02:02:53;;;;;;;2.17;2.07;;;24.10;44.80;;;;;;5010369;28;20293;-73
2023/06/29 02:05:19;;;;;;;2.33;2.23;;;24.10;44.90;;;;;;5009627;28;20223;-73
2023/06/29 02:07:45;;;;;;;2.43;2.23;;;24.10;44.90;;;;;;4999124;28;20313;-73
2023/06/29 02:10:10;;;;;;;2.67;2.53;;;24.10;44.80;;;;;;5012646;28;20973;-73
2023/06/29 02:12:39;;;;;;;2.47;2.20;;;24.10;45.60;;;;;;5017810;28;20345;-73
2023/06/29 02:15:05;;;;;;;2.80;2.60;;;24.10;44.90;;;;;;5006758;28;20227;-73
2023/06/29 02:17:30;;;;;;;2.43;2.23;;;24.10;44.90;;;;;;5000143;28;20476;-73
2023/06/29 02:19:56;;;;;;;2.10;2.00;;;24.10;44.90;;;;;;5004536;28;20322;-73
2023/06/29 02:22:21;;;;;;;2.90;2.70;;;24.10;44.90;;;;;;5012723;28;20275;-73
2023/06/29 02:24:47;;;;;;;2.83;2.67;;;24.10;44.90;;;;;;5019267;28;20226;-73
2023/06/29 02:27:12;;;;;;;2.23;2.13;;;24.10;44.80;;;;;;5013530;28;20257;-74
2023/06/29 02:29:38;;;;;;;2.67;2.57;;;24.10;44.80;;;;;;5006287;28;20234;-73
2023/06/29 02:32:04;;;;;;;2.50;2.40;;;24.10;44.90;;;;;;5013207;28;20703;-72
2023/06/29 02:34:30;;;;;;;2.30;2.20;;;24.10;44.90;;;;;;5011191;28;20234;-73
2023/06/29 02:36:56;;;;;;;2.77;2.60;;;24.10;44.90;;;;;;5006690;28;20231;-73
2023/06/29 02:39:21;;;;;;;2.50;2.40;;;24.10;44.90;;;;;;4993966;28;20496;-73
2023/06/29 02:41:47;;;;;;;2.37;2.27;;;24.10;44.90;;;;;;5016595;28;20257;-73
2023/06/29 02:44:12;;;;;;;2.50;2.40;;;24.10;44.90;;;;;;5019123;28;20313;-73
2023/06/29 02:46:38;;;;;;;2.50;2.40;;;24.00;44.80;;;;;;5012814;28;20269;-73
2023/06/29 02:49:04;;;;;;;2.10;2.00;;;24.10;44.90;;;;;;5006192;28;20733;-73
2023/06/29 02:51:29;;;;;;;2.57;2.47;;;24.10;44.90;;;;;;5015134;28;20473;-73
2023/06/29 02:53:55;;;;;;;2.23;2.13;;;24.10;44.90;;;;;;5018524;28;20219;-73
2023/06/29 02:56:20;;;;;;;2.60;2.50;;;24.10;44.90;;;;;;5002827;28;20231;-73
2023/06/29 02:58:46;;;;;;;2.20;2.10;;;24.00;44.80;;;;;;5015407;28;20222;-73
2023/06/29 03:01:12;;;;;;;2.53;2.43;;;24.10;44.90;;;;;;5008686;28;20227;-73
2023/06/29 03:03:37;;;;;;;2.30;2.20;;;24.10;45.00;;;;;;5008315;28;20577;-73
2023/06/29 03:06:03;;;;;;;2.40;2.30;;;24.10;44.90;;;;;;5016655;28;20241;-73
2023/06/29 03:08:28;;;;;;;2.90;2.70;;;24.10;45.00;;;;;;5012734;28;20529;-73
2023/06/29 03:10:54;;;;;;;2.80;2.60;;;24.10;44.90;;;;;;5007593;28;20226;-73
2023/06/29 03:13:19;;;;;;;2.53;2.33;;;24.00;44.80;;;;;;5013240;28;20219;-73
2023/06/29 03:15:45;;;;;;;2.63;2.53;;;24.00;44.90;;;;;;5007543;28;20277;-73
2023/06/29 03:18:10;;;;;;;2.97;2.67;;;24.10;45.00;;;;;;4996648;28;20223;-73
2023/06/29 03:20:36;;;;;;;2.67;2.57;;;24.10;45.00;;;;;;5011416;28;20223;-73
2023/06/29 03:23:01;;;;;;;2.60;2.50;;;24.10;45.00;;;;;;5006121;28;20222;-73
2023/06/29 03:25:27;;;;;;;2.60;2.50;;;24.10;45.00;;;;;;4979660;28;1061686;-73
2023/06/29 03:27:53;;;;;;;2.67;2.47;;;24.00;44.90;;;;;;5016283;28;20690;-73
2023/06/29 03:30:18;;;;;;;2.40;2.30;;;24.00;44.80;;;;;;5010233;28;20472;-73
2023/06/29 03:32:44;;;;;;;2.67;2.57;;;24.00;44.90;;;;;;5013443;28;20296;-73
2023/06/29 03:35:09;;;;;;;2.90;2.70;;;24.00;44.90;;;;;;5004953;28;20229;-72
2023/06/29 03:37:35;;;;;;;2.30;2.20;;;24.00;45.00;;;;;;5003915;28;20214;-73
2023/06/29 03:40:00;;;;;;;2.73;2.53;;;24.00;44.90;;;;;;5001978;28;20720;-72
2023/06/29 03:42:26;;;;;;;2.40;2.30;;;24.10;45.10;;;;;;5016633;28;20281;-73
2023/06/29 03:44:51;;;;;;;2.70;2.50;;;24.00;44.90;;;;;;5016281;28;20954;-73
2023/06/29 03:47:17;;;;;;;2.60;2.50;;;24.00;44.90;;;;;;5012248;28;20244;-73
2023/06/29 03:49:43;;;;;;;2.80;2.60;;;24.10;45.00;;;;;;4996930;28;20257;-72
2023/06/29 03:52:08;;;;;;;3.20;3.00;;;24.10;45.10;;;;;;5014266;28;21043;-73
2023/06/29 03:54:34;;;;;;;2.90;2.80;;;24.00;45.00;;;;;;4997540;28;20230;-72
2023/06/29 03:56:59;;;;;;;3.23;3.00;;;24.00;45.00;;;;;;4998124;28;20288;-73
2023/06/29 03:59:25;;;;;;;2.87;2.67;;;24.00;44.90;;;;;;5013215;28;20767;-73
2023/06/29 04:01:50;;;;;;;2.73;2.63;;;24.00;45.00;;;;;;5008465;28;20250;-73
2023/06/29 04:04:16;;;;;;;2.27;2.17;;;24.00;45.00;;;;;;5019499;28;20685;-73
2023/06/29 04:06:42;;;;;;;2.33;2.23;;;24.00;44.90;;;;;;5012839;28;20235;-73
2023/06/29 04:09:09;;;;;;;2.90;2.70;;;24.00;45.00;;;;;;5002772;28;20285;-73
2023/06/29 04:11:34;;;;;;;2.47;2.37;;;24.00;45.00;;;;;;5015490;28;20317;-73
2023/06/29 04:14:00;;;;;;;2.43;2.30;;;24.00;45.00;;;;;;5015731;28;20563;-72
2023/06/29 04:16:25;;;;;;;2.30;2.20;;;24.10;45.10;;;;;;5006663;28;20226;-73
2023/06/29 04:18:51;;;;;;;3.07;2.87;;;24.10;45.10;;;;;;5015180;28;20337;-73
2023/06/29 04:21:17;;;;;;;2.70;2.50;;;24.10;45.20;;;;;;5016346;28;20306;-73
2023/06/29 04:23:42;;;;;;;2.43;2.33;;;24.00;45.00;;;;;;5002985;28;20233;-73
2023/06/29 04:26:10;;;;;;;2.57;2.47;;;24.00;45.00;;;;;;5009824;28;21479;-72
2023/06/29 04:28:36;;;;;;;2.93;2.73;;;24.10;45.10;;;;;;5009716;28;20215;-72
2023/06/29 04:31:02;;;;;;;2.83;2.70;;;24.00;45.10;;;;;;5016449;28;20478;-72
2023/06/29 04:33:27;;;;;;;2.70;2.50;;;24.00;45.00;;;;;;5006574;28;20289;-73
2023/06/29 04:35:53;;;;;;;2.80;2.60;;;24.00;45.00;;;;;;5017337;28;20452;-73
2023/06/29 04:38:25;;;;;;;2.80;2.60;;;24.00;45.10;;;;;;5014872;28;20215;-73
2023/06/29 04:41:03;;;;;;;3.07;2.87;;;24.00;45.00;;;;;;5017523;28;20230;-73
2023/06/29 04:43:29;;;;;;;2.80;2.70;;;24.00;45.10;;;;;;5000813;28;20945;-72
2023/06/29 04:45:55;;;;;;;2.90;2.80;;;24.00;45.10;;;;;;5006895;28;20496;-73
2023/06/29 04:48:29;;;;;;;3.00;2.80;;;24.00;45.10;;;;;;5000669;28;20996;-72
2023/06/29 04:51:02;;;;;;;2.60;2.50;;;24.10;45.10;;;;;;5015571;28;20693;-73
2023/06/29 04:53:28;;;;;;;2.97;2.77;;;24.00;45.10;;;;;;5017885;28;20506;-72
2023/06/29 04:55:55;;;;;;;2.63;2.53;;;24.00;45.00;;;;;;4993625;28;20539;-72
2023/06/29 04:58:20;;;;;;;3.30;3.00;;;24.00;45.00;;;;;;5007871;28;20558;-74
2023/06/29 05:00:46;;;;;;;2.60;2.50;;;24.10;45.10;;;;;;5006294;28;20502;-72
2023/06/29 05:03:11;;;;;;;2.13;2.03;;;24.10;45.10;;;;;;5015665;28;20212;-73
2023/06/29 05:05:37;;;;;;;2.80;2.60;;;24.10;45.10;;;;;;5023670;28;20210;-73
2023/06/29 05:08:02;;;;;;;2.87;2.77;;;24.00;45.00;;;;;;4991885;28;20238;-73
2023/06/29 05:10:28;;;;;;;2.80;2.60;;;24.00;45.00;;;;;;5013447;28;20259;-74
2023/06/29 05:12:53;;;;;;;2.77;2.57;;;24.00;45.00;;;;;;5014222;28;20282;-73
2023/06/29 05:15:19;;;;;;;3.27;2.33;;;24.00;45.00;;;;;;5009145;28;20360;-72
2023/06/29 05:17:45;;;;;;;2.73;2.53;;;24.00;45.00;;;;;;5006327;28;20317;-74
2023/06/29 05:20:11;;;;;;;2.93;2.63;;;24.00;45.00;;;;;;5008783;28;20230;-74
2023/06/29 05:22:36;;;;;;;2.73;2.63;;;24.10;45.20;;;;;;5011888;28;20687;-73
2023/06/29 05:25:02;;;;;;;2.80;2.70;;;24.00;45.10;;;;;;5013607;28;20559;-75
2023/06/29 05:27:28;;;;;;;2.83;2.63;;;24.00;45.10;;;;;;5016065;28;20237;-75
2023/06/29 05:29:53;;;;;;;2.47;2.37;;;24.00;45.10;;;;;;5011129;28;20246;-74
2023/06/29 05:32:19;;;;;;;2.50;2.40;;;24.00;45.10;;;;;;4998480;28;20241;-73
2023/06/29 05:34:44;;;;;;;2.90;2.70;;;24.00;45.10;;;;;;5015267;28;20250;-73
2023/06/29 05:37:10;;;;;;;2.30;2.20;;;24.00;45.10;;;;;;5011776;28;20325;-74
2023/06/29 05:39:35;;;;;;;2.57;2.37;;;24.00;45.10;;;;;;5015669;28;20218;-74
2023/06/29 05:42:01;;;;;;;2.40;2.30;;;24.00;45.10;;;;;;4998167;28;20237;-74
2023/06/29 05:44:26;;;;;;;2.93;2.73;;;24.00;45.20;;;;;;4997006;28;20281;-74
2023/06/29 05:46:52;;;;;;;2.50;2.40;;;24.00;45.10;;;;;;4999289;28;20234;-73
2023/06/29 05:49:17;;;;;;;2.47;2.37;;;24.00;45.10;;;;;;4994088;28;20241;-74
2023/06/29 05:51:43;;;;;;;2.57;2.30;;;24.00;45.10;;;;;;5021490;28;20222;-74
2023/06/29 05:54:08;;;;;;;2.73;2.63;;;24.00;45.20;;;;;;5000914;28;20227;-74
2023/06/29 05:56:34;;;;;;;2.80;2.70;;;24.00;45.10;;;;;;5010381;28;21053;-74
2023/06/29 05:59:00;;;;;;;2.97;2.77;;;24.00;45.20;;;;;;5012921;28;20305;-74
2023/06/29 06:01:25;;;;;;;3.50;3.30;;;24.00;45.20;;;;;;5011754;28;20222;-74
2023/06/29 06:03:51;;;;;;;2.97;2.77;;;24.00;45.20;;;;;;5010264;28;20246;-73
2023/06/29 06:06:16;;;;;;;3.00;2.80;;;24.00;45.20;;;;;;5015647;28;20800;-75
2023/06/29 06:08:42;;;;;;;2.77;2.67;;;24.00;45.20;;;;;;5017091;28;20234;-73
2023/06/29 06:11:07;;;;;;;2.77;2.63;;;24.00;45.20;;;;;;5008183;28;20260;-73
2023/06/29 06:13:33;;;;;;;2.90;2.70;;;24.10;45.30;;;;;;5007948;28;20760;-73
2023/06/29 06:15:58;;;;;;;3.00;2.80;;;24.10;45.30;;;;;;5009333;28;20234;-71
2023/06/29 06:18:24;;;;;;;2.80;2.70;;;24.00;45.20;;;;;;5019442;28;20223;-73
2023/06/29 06:20:49;;;;;;;2.73;2.50;;;24.00;45.20;;;;;;5019474;28;20588;-73
2023/06/29 06:23:15;;;;;;;2.53;2.43;;;24.10;45.30;;;;;;5015057;28;20213;-74
2023/06/29 06:25:40;;;;;;;2.90;2.80;;;24.00;45.30;;;;;;5014903;28;20254;-74
2023/06/29 06:28:06;;;;;;;3.10;2.90;;;24.00;45.30;;;;;;5005308;28;20714;-74
2023/06/29 06:30:32;;;;;;;3.20;2.87;;;24.00;45.30;;;;;;4996750;28;20722;-75
2023/06/29 06:33:01;;;;;;;2.77;2.60;;;24.00;45.30;;;;;;4999903;28;20231;-74
2023/06/29 06:35:28;;;;;;;2.90;2.70;;;24.00;45.30;;;;;;4994678;28;20702;-75
2023/06/29 06:37:53;;;;;;;2.93;2.73;;;24.00;45.30;;;;;;5014000;28;20959;-78
2023/06/29 06:40:19;;;;;;;3.50;2.73;;;24.00;45.30;;;;;;5011908;28;20484;-74
2023/06/29 06:42:44;;;;;;;2.90;2.70;;;24.00;45.30;;;;;;5012125;28;20273;-74
2023/06/29 06:45:10;;;;;;;3.10;2.90;;;24.00;45.30;;;;;;5007488;28;20227;-74
2023/06/29 06:47:36;;;;;;;3.07;2.87;;;24.00;45.40;;;;;;5009657;28;20772;-74
2023/06/29 06:50:03;;;;;;;3.23;3.03;;;24.00;45.40;;;;;;5020059;28;20525;-75
2023/06/29 06:52:29;;;;;;;3.37;3.17;;;24.00;45.40;;;;;;5018211;28;20218;-74
2023/06/29 06:54:56;;;;;;;3.00;2.80;;;24.00;45.40;;;;;;5006769;28;20494;-73
2023/06/29 06:57:22;;;;;;;2.80;2.70;;;24.00;45.40;;;;;;5016963;28;20225;-74
2023/06/29 06:59:48;;;;;;;3.20;3.00;;;24.00;45.40;;;;;;5016372;28;20542;-79
2023/06/29 07:02:14;;;;;;;2.47;2.37;;;24.00;45.40;;;;;;5005717;28;20889;-77
2023/06/29 07:04:39;;;;;;;2.87;2.77;;;24.00;45.40;;;;;;5010742;28;20285;-76
2023/06/29 07:07:06;;;;;;;2.77;2.67;;;24.00;45.40;;;;;;5013165;28;20231;-74
2023/06/29 07:09:31;;;;;;;3.63;3.43;;;24.00;45.40;;;;;;5006854;28;20237;-75
2023/06/29 07:11:58;;;;;;;2.83;2.63;;;24.00;45.40;;;;;;5017359;28;20464;-74
2023/06/29 07:14:24;;;;;;;3.00;2.80;;;24.00;45.40;;;;;;5009559;28;20278;-75
2023/06/29 07:16:49;;;;;;;2.97;2.77;;;24.10;45.50;;;;;;5018215;28;20539;-75
2023/06/29 07:19:16;;;;;;;3.10;2.90;;;24.00;45.50;;;;;;5008159;28;20304;-75
2023/06/29 07:21:42;;;;;;;3.30;3.10;;;24.00;45.50;;;;;;4993667;28;20325;-75
2023/06/29 07:24:08;;;;;;;3.13;2.93;;;24.00;45.50;;;;;;5007817;28;21082;-74
2023/06/29 07:26:35;;;;;;;2.90;2.80;;;24.00;45.50;;;;;;5017067;28;21068;-75
2023/06/29 07:29:00;;;;;;;3.00;2.90;;;24.00;45.50;;;;;;5003980;28;20471;-75
2023/06/29 07:31:27;;;;;;;2.90;2.80;;;24.00;45.50;;;;;;5019605;28;20462;-75
2023/06/29 07:33:54;;;;;;;2.87;2.67;;;24.00;45.50;;;;;;5009454;28;20280;-75
2023/06/29 07:36:24;;;;;;;3.10;2.90;;;24.00;45.50;;;;;;5019646;28;20444;-74
2023/06/29 07:38:51;;;;;;;3.27;3.07;;;24.00;45.50;;;;;;5006893;28;20465;-74
2023/06/29 07:41:17;;;;;;;3.20;3.00;;;24.00;45.50;;;;;;5018840;28;20478;-75
2023/06/29 07:43:47;;;;;;;3.20;3.00;;;24.00;46.30;;;;;;5016174;28;20462;-74
2023/06/29 07:46:13;;;;;;;3.57;3.37;;;24.00;45.50;;;;;;5012398;28;20858;-74
2023/06/29 07:48:39;;;;;;;3.03;2.90;;;24.00;45.60;;;;;;5011630;28;20532;-73
2023/06/29 07:51:04;;;;;;;2.97;2.77;;;24.00;45.60;;;;;;5014339;28;20341;-74
2023/06/29 07:53:31;;;;;;;3.53;3.33;;;24.00;45.50;;;;;;5018930;28;20212;-74
2023/06/29 07:55:59;;;;;;;3.13;2.93;;;24.00;45.60;;;;;;5017416;28;20226;-74
2023/06/29 07:58:26;;;;;;;2.93;2.73;;;24.00;45.60;;;;;;5017549;28;20990;-75
2023/06/29 08:00:53;;;;;;;3.40;2.97;;;24.00;45.60;;;;;;5013189;28;20472;-74
2023/06/29 08:03:18;;;;;;;3.00;2.80;;;24.00;45.60;;;;;;4999963;28;21050;-74
2023/06/29 08:05:44;;;;;;;3.50;3.30;;;24.00;45.60;;;;;;5009748;28;20448;-74
2023/06/29 08:08:10;;;;;;;3.00;2.80;;;24.00;45.60;;;;;;5012723;28;20255;-74
2023/06/29 08:10:35;;;;;;;3.30;3.00;;;24.00;45.60;;;;;;5009685;28;20692;-74
2023/06/29 08:13:01;;;;;;;5.33;3.13;;;24.00;45.60;;;;;;5017392;28;20230;-73
2023/06/29 08:15:26;;;;;;;3.63;3.43;;;24.00;45.60;;;;;;5008452;28;20238;-73
2023/06/29 08:17:52;;;;;;;3.37;3.07;;;24.00;45.70;;;;;;5009943;28;20229;-74
2023/06/29 08:20:17;;;;;;;3.20;3.00;;;24.00;45.70;;;;;;5010204;28;20211;-74
2023/06/29 08:22:43;;;;;;;3.80;3.57;;;24.10;45.80;;;;;;5009146;28;20310;-74
2023/06/29 08:25:09;;;;;;;3.53;3.33;;;24.00;45.70;;;;;;5015168;28;20234;-74
2023/06/29 08:27:39;;;;;;;3.07;2.87;;;24.00;45.70;;;;;;5019306;28;20230;-74
2023/06/29 08:30:05;;;;;;;3.17;2.97;;;24.00;45.70;;;;;;5016784;28;20234;-74
2023/06/29 08:32:31;;;;;;;3.57;3.37;;;24.10;45.80;;;;;;5016916;28;20468;-74
2023/06/29 08:34:56;;;;;;;3.50;3.20;;;24.00;45.70;;;;;;5013444;28;20475;-74
2023/06/29 08:37:22;;;;;;;3.33;3.13;;;24.00;45.80;;;;;;5014279;28;20221;-76
2023/06/29 08:39:47;;;;;;;3.47;3.27;;;24.00;45.80;;;;;;5021435;28;20574;-74
2023/06/29 08:42:13;;;;;;;3.20;3.00;;;24.00;45.80;;;;;;5013755;28;20236;-74
2023/06/29 08:44:39;;;;;;;3.57;3.37;;;24.00;45.80;;;;;;5015651;28;20309;-74
2023/06/29 08:47:06;;;;;;;3.77;3.57;;;24.00;45.80;;;;;;5011958;28;20231;-74
2023/06/29 08:49:38;;;;;;;3.80;3.60;;;24.10;45.90;;;;;;5022111;28;20218;-74
2023/06/29 08:52:06;;;;;;;4.10;3.80;;;24.00;45.80;;;;;;5008962;28;20511;-74
2023/06/29 08:54:32;;;;;;;3.30;3.10;;;24.00;45.80;;;;;;5014577;28;21033;-74
2023/06/29 08:57:00;;;;;;;3.67;3.40;;;24.10;45.90;;;;;;5015390;28;20468;-74
2023/06/29 08:59:27;;;;;;;3.47;3.27;;;24.00;45.90;;;;;;5018554;28;20452;-76
2023/06/29 09:01:53;;;;;;;3.53;3.33;;;24.00;45.80;;;;;;5008015;28;20471;-74
2023/06/29 09:04:18;;;;;;;3.50;3.30;;;24.00;45.80;;;;;;5019358;28;20845;-76
2023/06/29 09:06:44;;;;;;;3.93;3.73;;;24.10;45.90;;;;;;5016928;28;20698;-76
2023/06/29 09:09:09;;;;;;;3.50;3.30;;;24.10;45.90;;;;;;5017545;28;20226;-74
2023/06/29 09:11:36;;;;;;;4.03;3.83;;;24.00;45.90;;;;;;5009982;28;20218;-76
2023/06/29 09:14:07;;;;;;;3.40;3.20;;;24.00;45.80;;;;;;5003502;28;20585;-76
2023/06/29 09:16:34;;;;;;;3.00;2.80;;;24.00;45.80;;;;;;5009568;28;20472;-75
2023/06/29 09:19:00;;;;;;;3.30;3.10;;;24.00;45.90;;;;;;5017131;28;21065;-75
2023/06/29 09:21:28;;;;;;;3.83;3.53;;;24.00;45.90;;;;;;5014354;28;20452;-75
2023/06/29 09:23:57;;;;;;;3.70;3.50;;;24.00;45.90;;;;;;5010840;28;20961;-76
2023/06/29 09:26:27;;;;;;;3.73;3.50;;;24.00;46.00;;;;;;5016812;28;20475;-75
2023/06/29 09:28:57;;;;;;;3.60;3.30;;;24.00;45.90;;;;;;5021640;28;20472;-75
2023/06/29 09:31:25;;;;;;;3.63;3.43;;;24.10;45.90;;;;;;5018651;28;20482;-76
2023/06/29 09:33:51;;;;;;;3.93;3.73;;;24.10;46.00;;;;;;5006709;28;21204;-73
2023/06/29 09:36:16;;;;;;;3.47;3.27;;;24.10;45.90;;;;;;5021260;28;20456;-74
2023/06/29 09:38:47;;;;;;;3.57;3.37;;;24.10;46.00;;;;;;5007168;28;20226;-79
2023/06/29 09:41:13;;;;;;;3.83;3.63;;;24.10;46.00;;;;;;5020458;28;20215;-73
2023/06/29 09:43:40;;;;;;;3.50;3.30;;;24.10;46.00;;;;;;5022272;28;20459;-75
2023/06/29 09:46:09;;;;;;;3.80;3.60;;;24.10;46.00;;;;;;5011700;28;20223;-74
2023/06/29 09:48:48;;;;;;;3.83;3.63;;;24.10;46.00;;;;;;5012731;28;20472;-74
2023/06/29 09:51:20;;;;;;;4.20;3.90;;;24.10;46.00;;;;;;5018155;28;20503;-74
2023/06/29 09:53:46;;;;;;;3.60;3.40;;;24.10;46.00;;;;;;5014781;28;20459;-74
2023/06/29 09:56:13;;;;;;;3.50;3.30;;;24.10;46.00;;;;;;5006876;28;20462;-74
2023/06/29 09:58:39;;;;;;;4.30;3.90;;;24.10;46.00;;;;;;5015300;28;20449;-74
2023/06/29 10:01:05;;;;;;;4.37;4.07;;;24.10;46.10;;;;;;5008447;28;21001;-74
2023/06/29 10:03:33;;;;;;;3.97;3.60;;;24.10;46.00;;;;;;5006369;28;20317;-75
2023/06/29 10:06:17;;;;;;;3.87;3.67;;;24.10;46.10;;;;;;5016346;28;20226;-76
2023/06/29 10:08:47;;;;;;;4.10;3.90;;;24.10;46.00;;;;;;5020915;28;21224;-75
2023/06/29 10:11:14;;;;;;;4.07;3.77;;;24.10;46.10;;;;;;5012820;28;20487;-75
2023/06/29 10:13:46;;;;;;;4.33;4.13;;;24.10;46.10;;;;;;5010299;28;20456;-75
2023/06/29 10:16:14;;;;;;;4.40;4.20;;;24.10;46.10;;;;;;5019286;28;20439;-76
2023/06/29 10:18:43;;;;;;;4.77;4.43;;;24.10;46.20;;;;;;5013453;28;20721;-76
2023/06/29 10:21:09;;;;;;;4.03;3.83;;;24.10;46.10;;;;;;5024488;28;20460;-76
2023/06/29 10:23:37;;;;;;;4.27;3.97;;;24.10;46.20;;;;;;5016980;28;20525;-76
2023/06/29 10:26:05;;;;;;;4.17;3.87;;;24.10;46.10;;;;;;5003328;28;20917;-75
2023/06/29 10:28:31;;;;;;;4.40;4.07;;;24.20;46.20;;;;;;5016334;28;20778;-76
2023/06/29 10:30:59;;;;;;;4.30;4.10;;;24.10;46.10;;;;;;5007608;28;20502;-77
2023/06/29 10:33:26;;;;;;;4.20;4.00;;;24.10;46.10;;;;;;5007632;28;20301;-72
2023/06/29 10:36:01;;;;;;;3.93;3.70;;;24.10;46.10;;;;;;5006404;28;20456;-75
2023/06/29 10:38:35;;;;;;;4.50;4.20;;;24.10;46.20;;;;;;5009428;28;20805;-76
2023/06/29 10:41:05;;;;;;;4.20;3.90;;;24.10;46.20;;;;;;5012129;28;20494;-75
2023/06/29 10:43:54;;;;;;;3.70;3.40;;;24.10;46.20;;;;;;5022747;28;20475;-77
2023/06/29 10:46:40;;;;;;;4.03;3.83;;;24.10;46.20;;;;;;5034783;28;20459;-78
2023/06/29 10:49:08;;;;;;;4.00;3.80;;;24.10;46.20;;;;;;5012198;28;20463;-78
2023/06/29 10:51:34;;;;;;;4.80;4.50;;;24.10;46.20;;;;;;5020184;28;20529;-78
2023/06/29 10:54:01;;;;;;;4.77;4.47;;;24.10;46.20;;;;;;5010314;28;21048;-77
2023/06/29 10:56:30;;;;;;;4.60;4.30;;;24.10;46.20;;;;;;5015557;28;20215;-77
2023/06/29 10:58:57;;;;;;;4.63;4.30;;;24.10;46.20;;;;;;5011894;28;20568;-80
2023/06/29 11:01:22;;;;;;;5.33;4.93;;;24.10;46.20;;;;;;5020547;28;20456;-77
2023/06/29 11:03:49;;;;;;;5.03;4.73;;;24.20;46.30;;;;;;5004834;28;20578;-80
2023/06/29 11:06:14;;;;;;;4.40;4.17;;;24.10;46.30;;;;;;5010922;28;20227;-74
2023/06/29 11:08:40;;;;;;;5.03;4.53;;;24.10;46.30;;;;;;5009628;28;20455;-72
2023/06/29 11:11:14;;;;;;;5.97;5.57;;;24.10;46.30;;;;;;5018295;28;20222;-76
2023/06/29 11:13:39;;;;;;;5.13;4.70;;;24.10;46.30;;;;;;5021524;28;20693;-75
2023/06/29 11:16:05;;;;;;;4.57;4.27;;;24.20;46.40;;;;;;5012306;28;20490;-76
2023/06/29 11:18:30;;;;;;;4.57;4.17;;;24.10;46.30;;;;;;5017086;28;20222;-76
2023/06/29 11:20:59;;;;;;;5.20;4.90;;;24.10;46.30;;;;;;5018166;28;20230;-75
2023/06/29 11:23:25;;;;;;;4.33;4.13;;;24.10;46.30;;;;;;5009688;28;20226;-75
2023/06/29 11:25:50;;;;;;;4.93;4.63;;;24.10;46.30;;;;;;5028159;28;20515;-74
2023/06/29 11:28:16;;;;;;;4.93;4.63;;;24.10;46.30;;;;;;5012935;28;20253;-76
2023/06/29 11:30:42;;;;;;;5.17;4.60;;;24.10;46.30;;;;;;5014123;28;20238;-76
2023/06/29 11:33:11;;;;;;;5.07;4.70;;;24.10;46.30;;;;;;5016252;28;20236;-76
2023/06/29 11:35:36;;;;;;;5.43;5.03;;;24.10;46.30;;;;;;5006967;28;20300;-75
2023/06/29 11:38:02;;;;;;;4.70;4.40;;;24.10;46.40;;;;;;5002785;28;21118;-75
2023/06/29 11:40:29;;;;;;;5.00;4.50;;;24.10;46.40;;;;;;5006342;28;20226;-75
2023/06/29 11:42:55;;;;;;;4.93;4.67;;;24.10;46.50;;;;;;5004938;28;20226;-75
2023/06/29 11:45:21;;;;;;;5.60;5.30;;;24.10;46.30;;;;;;5006962;28;20459;-75
2023/06/29 11:47:54;;;;;;;4.63;4.37;;;24.10;46.30;;;;;;5014392;28;20280;-75
2023/06/29 11:50:20;;;;;;;5.17;4.87;;;24.10;46.40;;;;;;5013062;28;21033;-76
2023/06/29 11:52:46;;;;;;;5.07;4.37;;;24.10;46.40;;;;;;5007633;28;20481;-75
2023/06/29 11:55:13;;;;;;;4.70;4.40;;;24.10;46.40;;;;;;4992693;28;22969;-76
2023/06/29 11:57:40;;;;;;;5.60;5.20;;;24.10;46.40;;;;;;4998698;28;20480;-75
2023/06/29 12:00:29;;;;;;;5.13;4.83;;;24.10;46.40;;;;;;5014851;28;20489;-76
2023/06/29 12:02:54;;;;;;;4.93;4.63;;;24.10;46.30;;;;;;5011432;28;21189;-76
2023/06/29 12:05:28;;;;;;;4.67;4.37;;;24.10;46.40;;;;;;5010219;28;20459;-75
2023/06/29 12:07:54;;;;;;;5.07;4.67;;;24.10;46.50;;;;;;5016320;28;20242;-75
2023/06/29 12:10:24;;;;;;;5.20;4.90;;;24.10;46.50;;;;;;5008921;28;20821;-75
2023/06/29 12:12:59;;;;;;;5.67;5.30;;;24.10;46.40;;;;;;5017397;28;20701;-75
2023/06/29 12:15:26;;;;;;;5.30;5.00;;;24.10;46.50;;;;;;5020364;28;20478;-75
2023/06/29 12:17:58;;;;;;;5.03;4.73;;;24.10;46.50;;;;;;5004586;28;20472;-75
2023/06/29 12:20:26;;;;;;;5.60;5.20;;;24.10;46.50;;;;;;5014821;28;20495;-75
2023/06/29 12:22:53;;;;;;;5.30;4.90;;;24.10;46.40;;;;;;5006561;28;20467;-74
2023/06/29 12:25:20;;;;;;;5.67;5.27;;;24.10;46.50;;;;;;5014728;28;20475;-75
2023/06/29 12:27:50;;;;;;;5.30;5.00;;;24.10;46.50;;;;;;5019253;28;20549;-74
2023/06/29 12:30:20;;;;;;;5.00;4.70;;;24.10;46.50;;;;;;5012854;28;21395;-75
2023/06/29 12:32:50;;;;;;;5.43;5.03;;;24.10;46.50;;;;;;5007745;28;20537;-75
2023/06/29 12:35:18;;;;;;;5.77;5.47;;;24.10;46.50;;;;;;5007042;28;20559;-75
2023/06/29 12:37:45;;;;;;;5.30;4.90;;;24.10;46.50;;;;;;5019725;28;20452;-75
2023/06/29 12:40:10;;;;;;;5.13;4.83;;;24.10;46.50;;;;;;5012058;28;20476;-75
2023/06/29 12:42:37;;;;;;;5.30;5.00;;;24.10;46.50;;;;;;5006646;28;20533;-75
2023/06/29 12:45:04;;;;;;;5.40;5.10;;;24.10;46.50;;;;;;4999158;28;20590;-74